sensor_id;sensor_type;location;lat;lon;timestamp;P1;durP1;ratioP1;P2;durP2;ratioP2
78995;SDS011;68401;47.192;-1.552;2023-11-21T00:01:55;7.15;;;2.13;;
78995;SDS011;68401;47.192;-1.552;2023-11-21T00:04:22;6.18;;;1.85;;
78995;SDS011;68401;47.192;-1.552;2023-11-21T00:06:47;5.25;;;1.88;;
78995;SDS011;68401;47.192;-1.552;2023-11-21T00:09:13;6.43;;;2.33;;
78995;SDS011;68401;47.192;-1.552;2023-11-21T00:11:40;6.97;;;2.13;;
78995;SDS011;68401;47.192;-1.552;2023-11-21T00:14:06;4.72;;;1.92;;
78995;SDS011;68401;47.192;-1.552;2023-11-21T00:16:31;10.68;;;2.38;;
78995;SDS011;68401;47.192;-1.552;2023-11-21T00:18:57;8.48;;;2.15;;
78995;SDS011;68401;47.192;-1.552;2023-11-21T00:21:22;4.80;;;2.10;;
78995;SDS011;68401;47.192;-1.552;2023-11-21T00:23:48;6.60;;;1.80;;
78995;SDS011;68401;47.192;-1.552;2023-11-21T00:26:13;5.65;;;1.75;;
78995;SDS011;68401;47.192;-1.552;2023-11-21T00:28:39;4.78;;;2.17;;
78995;SDS011;68401;47.192;-1.552;2023-11-21T00:31:05;3.15;;;1.77;;
78995;SDS011;68401;47.192;-1.552;2023-11-21T00:33:30;4.80;;;1.70;;
78995;SDS011;68401;47.192;-1.552;2023-11-21T00:35:55;5.28;;;1.80;;
78995;SDS011;68401;47.192;-1.552;2023-11-21T00:38:21;7.47;;;1.90;;
78995;SDS011;68401;47.192;-1.552;2023-11-21T00:40:47;5.57;;;2.00;;
78995;SDS011;68401;47.192;-1.552;2023-11-21T00:43:12;4.97;;;2.20;;
78995;SDS011;68401;47.192;-1.552;2023-11-21T00:45:37;5.45;;;2.15;;
78995;SDS011;68401;47.192;-1.552;2023-11-21T00:48:05;6.05;;;2.55;;
78995;SDS011;68401;47.192;-1.552;2023-11-21T00:50:30;5.70;;;2.30;;
78995;SDS011;68401;47.192;-1.552;2023-11-21T00:52:56;4.70;;;1.98;;
78995;SDS011;68401;47.192;-1.552;2023-11-21T00:55:21;6.50;;;2.00;;
78995;SDS011;68401;47.192;-1.552;2023-11-21T00:57:47;5.32;;;2.08;;
78995;SDS011;68401;47.192;-1.552;2023-11-21T01:00:13;4.82;;;2.30;;
78995;SDS011;68401;47.192;-1.552;2023-11-21T01:02:42;5.22;;;2.10;;
78995;SDS011;68401;47.192;-1.552;2023-11-21T01:05:09;8.20;;;2.55;;
78995;SDS011;68401;47.192;-1.552;2023-11-21T01:07:35;3.63;;;1.88;;
78995;SDS011;68401;47.192;-1.552;2023-11-21T01:10:01;5.88;;;2.10;;
78995;SDS011;68401;47.192;-1.552;2023-11-21T01:12:27;5.60;;;2.78;;
78995;SDS011;68401;47.192;-1.552;2023-11-21T01:14:53;4.38;;;1.92;;
78995;SDS011;68401;47.192;-1.552;2023-11-21T01:17:18;3.70;;;1.63;;
78995;SDS011;68401;47.192;-1.552;2023-11-21T01:19:43;4.78;;;2.25;;
78995;SDS011;68401;47.192;-1.552;2023-11-21T01:22:09;6.68;;;2.75;;
78995;SDS011;68401;47.192;-1.552;2023-11-21T01:24:36;5.90;;;2.15;;
78995;SDS011;68401;47.192;-1.552;2023-11-21T01:27:02;4.95;;;1.92;;
78995;SDS011;68401;47.192;-1.552;2023-11-21T01:29:29;6.40;;;1.70;;
78995;SDS011;68401;47.192;-1.552;2023-11-21T01:31:55;4.95;;;1.75;;
78995;SDS011;68401;47.192;-1.552;2023-11-21T01:34:22;5.20;;;2.10;;
78995;SDS011;68401;47.192;-1.552;2023-11-21T01:36:48;7.53;;;2.28;;
78995;SDS011;68401;47.192;-1.552;2023-11-21T01:39:13;4.55;;;1.63;;
78995;SDS011;68401;47.192;-1.552;2023-11-21T01:41:41;6.18;;;1.77;;
78995;SDS011;68401;47.192;-1.552;2023-11-21T01:44:09;6.63;;;2.75;;
78995;SDS011;68401;47.192;-1.552;2023-11-21T01:46:35;7.72;;;2.47;;
78995;SDS011;68401;47.192;-1.552;2023-11-21T01:49:00;4.63;;;1.60;;
78995;SDS011;68401;47.192;-1.552;2023-11-21T01:51:26;5.35;;;2.08;;
78995;SDS011;68401;47.192;-1.552;2023-11-21T01:53:51;10.48;;;2.15;;
78995;SDS011;68401;47.192;-1.552;2023-11-21T01:56:17;9.45;;;1.70;;
78995;SDS011;68401;47.192;-1.552;2023-11-21T01:58:43;5.57;;;1.80;;
78995;SDS011;68401;47.192;-1.552;2023-11-21T02:01:08;8.48;;;2.00;;
78995;SDS011;68401;47.192;-1.552;2023-11-21T02:03:35;4.47;;;1.75;;
78995;SDS011;68401;47.192;-1.552;2023-11-21T02:06:00;6.85;;;1.90;;
78995;SDS011;68401;47.192;-1.552;2023-11-21T02:08:26;7.35;;;2.10;;
78995;SDS011;68401;47.192;-1.552;2023-11-21T02:10:52;5.25;;;1.90;;
78995;SDS011;68401;47.192;-1.552;2023-11-21T02:13:17;8.32;;;2.08;;
78995;SDS011;68401;47.192;-1.552;2023-11-21T02:15:42;9.70;;;2.28;;
78995;SDS011;68401;47.192;-1.552;2023-11-21T02:18:08;4.88;;;2.05;;
78995;SDS011;68401;47.192;-1.552;2023-11-21T02:20:36;9.13;;;1.83;;
78995;SDS011;68401;47.192;-1.552;2023-11-21T02:23:03;7.50;;;1.67;;
78995;SDS011;68401;47.192;-1.552;2023-11-21T02:25:30;5.20;;;2.08;;
78995;SDS011;68401;47.192;-1.552;2023-11-21T02:27:58;5.97;;;2.13;;
78995;SDS011;68401;47.192;-1.552;2023-11-21T02:30:27;7.53;;;2.03;;
78995;SDS011;68401;47.192;-1.552;2023-11-21T02:32:53;4.35;;;1.70;;
78995;SDS011;68401;47.192;-1.552;2023-11-21T02:35:19;4.10;;;1.65;;
78995;SDS011;68401;47.192;-1.552;2023-11-21T02:37:48;3.75;;;1.90;;
78995;SDS011;68401;47.192;-1.552;2023-11-21T02:40:14;6.68;;;1.70;;
78995;SDS011;68401;47.192;-1.552;2023-11-21T02:42:46;6.63;;;1.60;;
78995;SDS011;68401;47.192;-1.552;2023-11-21T02:45:12;5.05;;;1.65;;
78995;SDS011;68401;47.192;-1.552;2023-11-21T02:47:39;7.57;;;1.45;;
78995;SDS011;68401;47.192;-1.552;2023-11-21T02:50:05;3.47;;;1.40;;
78995;SDS011;68401;47.192;-1.552;2023-11-21T02:52:32;10.85;;;2.00;;
78995;SDS011;68401;47.192;-1.552;2023-11-21T02:54:58;7.28;;;2.35;;
78995;SDS011;68401;47.192;-1.552;2023-11-21T02:57:23;4.43;;;1.65;;
78995;SDS011;68401;47.192;-1.552;2023-11-21T02:59:49;5.03;;;1.80;;
78995;SDS011;68401;47.192;-1.552;2023-11-21T03:02:15;4.05;;;1.60;;
78995;SDS011;68401;47.192;-1.552;2023-11-21T03:04:40;4.30;;;1.55;;
78995;SDS011;68401;47.192;-1.552;2023-11-21T03:07:07;3.55;;;1.23;;
78995;SDS011;68401;47.192;-1.552;2023-11-21T03:09:33;3.97;;;1.70;;
78995;SDS011;68401;47.192;-1.552;2023-11-21T03:11:59;3.78;;;1.40;;
78995;SDS011;68401;47.192;-1.552;2023-11-21T03:14:24;15.20;;;2.95;;
78995;SDS011;68401;47.192;-1.552;2023-11-21T03:16:49;4.60;;;1.45;;
78995;SDS011;68401;47.192;-1.552;2023-11-21T03:19:15;5.05;;;1.35;;
78995;SDS011;68401;47.192;-1.552;2023-11-21T03:21:40;5.47;;;1.52;;
78995;SDS011;68401;47.192;-1.552;2023-11-21T03:24:06;6.60;;;1.52;;
78995;SDS011;68401;47.192;-1.552;2023-11-21T03:26:32;4.45;;;1.52;;
78995;SDS011;68401;47.192;-1.552;2023-11-21T03:28:58;4.38;;;1.83;;
78995;SDS011;68401;47.192;-1.552;2023-11-21T03:31:23;7.45;;;1.60;;
78995;SDS011;68401;47.192;-1.552;2023-11-21T03:33:48;4.07;;;1.40;;
78995;SDS011;68401;47.192;-1.552;2023-11-21T03:36:14;5.80;;;1.50;;
78995;SDS011;68401;47.192;-1.552;2023-11-21T03:38:43;5.35;;;1.70;;
78995;SDS011;68401;47.192;-1.552;2023-11-21T03:41:08;6.45;;;1.73;;
78995;SDS011;68401;47.192;-1.552;2023-11-21T03:43:36;6.25;;;1.80;;
78995;SDS011;68401;47.192;-1.552;2023-11-21T03:46:02;4.53;;;1.55;;
78995;SDS011;68401;47.192;-1.552;2023-11-21T03:48:28;3.90;;;1.65;;
78995;SDS011;68401;47.192;-1.552;2023-11-21T03:50:53;6.13;;;1.75;;
78995;SDS011;68401;47.192;-1.552;2023-11-21T03:53:19;3.70;;;1.23;;
78995;SDS011;68401;47.192;-1.552;2023-11-21T03:55:44;5.97;;;1.80;;
78995;SDS011;68401;47.192;-1.552;2023-11-21T03:58:09;6.43;;;1.60;;
78995;SDS011;68401;47.192;-1.552;2023-11-21T04:00:35;5.95;;;1.85;;
78995;SDS011;68401;47.192;-1.552;2023-11-21T04:03:00;8.18;;;2.30;;
78995;SDS011;68401;47.192;-1.552;2023-11-21T04:05:25;5.85;;;1.80;;
78995;SDS011;68401;47.192;-1.552;2023-11-21T04:07:51;8.68;;;1.98;;
78995;SDS011;68401;47.192;-1.552;2023-11-21T04:10:16;8.40;;;2.33;;
78995;SDS011;68401;47.192;-1.552;2023-11-21T04:12:42;4.80;;;1.50;;
78995;SDS011;68401;47.192;-1.552;2023-11-21T04:15:07;5.68;;;1.95;;
78995;SDS011;68401;47.192;-1.552;2023-11-21T04:17:34;6.45;;;1.75;;
78995;SDS011;68401;47.192;-1.552;2023-11-21T04:20:00;7.18;;;1.38;;
78995;SDS011;68401;47.192;-1.552;2023-11-21T04:22:25;6.68;;;2.08;;
78995;SDS011;68401;47.192;-1.552;2023-11-21T04:24:51;4.70;;;1.90;;
78995;SDS011;68401;47.192;-1.552;2023-11-21T04:27:16;4.43;;;1.70;;
78995;SDS011;68401;47.192;-1.552;2023-11-21T04:29:43;4.80;;;2.22;;
78995;SDS011;68401;47.192;-1.552;2023-11-21T04:32:09;5.13;;;2.15;;
78995;SDS011;68401;47.192;-1.552;2023-11-21T04:34:34;7.00;;;1.50;;
78995;SDS011;68401;47.192;-1.552;2023-11-21T04:37:00;6.95;;;1.90;;
78995;SDS011;68401;47.192;-1.552;2023-11-21T04:39:26;3.75;;;1.65;;
78995;SDS011;68401;47.192;-1.552;2023-11-21T04:41:52;3.38;;;1.42;;
78995;SDS011;68401;47.192;-1.552;2023-11-21T04:44:17;5.07;;;1.92;;
78995;SDS011;68401;47.192;-1.552;2023-11-21T04:46:42;6.13;;;1.50;;
78995;SDS011;68401;47.192;-1.552;2023-11-21T04:49:08;8.95;;;3.05;;
78995;SDS011;68401;47.192;-1.552;2023-11-21T04:51:34;5.75;;;2.15;;
78995;SDS011;68401;47.192;-1.552;2023-11-21T04:53:59;10.82;;;3.03;;
78995;SDS011;68401;47.192;-1.552;2023-11-21T04:56:24;4.32;;;1.90;;
78995;SDS011;68401;47.192;-1.552;2023-11-21T04:58:50;5.93;;;2.40;;
78995;SDS011;68401;47.192;-1.552;2023-11-21T05:01:15;4.50;;;1.60;;
78995;SDS011;68401;47.192;-1.552;2023-11-21T05:03:41;5.80;;;1.50;;
78995;SDS011;68401;47.192;-1.552;2023-11-21T05:06:09;7.10;;;2.92;;
78995;SDS011;68401;47.192;-1.552;2023-11-21T05:08:34;6.10;;;2.10;;
78995;SDS011;68401;47.192;-1.552;2023-11-21T05:11:02;6.68;;;1.95;;
78995;SDS011;68401;47.192;-1.552;2023-11-21T05:13:27;6.93;;;2.58;;
78995;SDS011;68401;47.192;-1.552;2023-11-21T05:15:54;7.68;;;1.80;;
78995;SDS011;68401;47.192;-1.552;2023-11-21T05:18:20;4.40;;;1.88;;
78995;SDS011;68401;47.192;-1.552;2023-11-21T05:20:46;5.55;;;2.15;;
78995;SDS011;68401;47.192;-1.552;2023-11-21T05:23:12;3.55;;;2.08;;
78995;SDS011;68401;47.192;-1.552;2023-11-21T05:25:37;5.68;;;2.63;;
78995;SDS011;68401;47.192;-1.552;2023-11-21T05:28:03;4.78;;;2.10;;
78995;SDS011;68401;47.192;-1.552;2023-11-21T05:30:29;5.60;;;2.03;;
78995;SDS011;68401;47.192;-1.552;2023-11-21T05:32:54;7.13;;;2.13;;
78995;SDS011;68401;47.192;-1.552;2023-11-21T05:35:20;4.03;;;2.25;;
78995;SDS011;68401;47.192;-1.552;2023-11-21T05:37:46;5.15;;;2.72;;
78995;SDS011;68401;47.192;-1.552;2023-11-21T05:40:11;4.13;;;2.40;;
78995;SDS011;68401;47.192;-1.552;2023-11-21T05:42:38;4.90;;;2.85;;
78995;SDS011;68401;47.192;-1.552;2023-11-21T05:45:05;5.05;;;2.15;;
78995;SDS011;68401;47.192;-1.552;2023-11-21T05:47:41;2.95;;;2.10;;
78995;SDS011;68401;47.192;-1.552;2023-11-21T05:50:08;6.05;;;2.33;;
78995;SDS011;68401;47.192;-1.552;2023-11-21T05:52:36;3.60;;;2.03;;
78995;SDS011;68401;47.192;-1.552;2023-11-21T05:55:02;5.05;;;2.15;;
78995;SDS011;68401;47.192;-1.552;2023-11-21T05:57:30;3.92;;;2.15;;
78995;SDS011;68401;47.192;-1.552;2023-11-21T05:59:55;5.15;;;2.03;;
78995;SDS011;68401;47.192;-1.552;2023-11-21T06:02:21;4.85;;;1.98;;
78995;SDS011;68401;47.192;-1.552;2023-11-21T06:04:46;8.27;;;5.25;;
78995;SDS011;68401;47.192;-1.552;2023-11-21T06:07:11;5.93;;;2.90;;
78995;SDS011;68401;47.192;-1.552;2023-11-21T06:09:37;6.70;;;2.50;;
78995;SDS011;68401;47.192;-1.552;2023-11-21T06:12:02;8.60;;;2.80;;
78995;SDS011;68401;47.192;-1.552;2023-11-21T06:14:29;7.30;;;4.05;;
78995;SDS011;68401;47.192;-1.552;2023-11-21T06:16:54;7.82;;;6.15;;
78995;SDS011;68401;47.192;-1.552;2023-11-21T06:19:21;9.15;;;7.93;;
78995;SDS011;68401;47.192;-1.552;2023-11-21T06:21:46;11.27;;;8.57;;
78995;SDS011;68401;47.192;-1.552;2023-11-21T06:24:12;8.52;;;6.47;;
78995;SDS011;68401;47.192;-1.552;2023-11-21T06:26:37;13.02;;;5.38;;
78995;SDS011;68401;47.192;-1.552;2023-11-21T06:29:03;10.50;;;6.65;;
78995;SDS011;68401;47.192;-1.552;2023-11-21T06:31:29;8.40;;;6.75;;
78995;SDS011;68401;47.192;-1.552;2023-11-21T06:33:54;10.60;;;7.07;;
78995;SDS011;68401;47.192;-1.552;2023-11-21T06:36:20;11.27;;;7.63;;
78995;SDS011;68401;47.192;-1.552;2023-11-21T06:38:45;12.82;;;9.68;;
78995;SDS011;68401;47.192;-1.552;2023-11-21T06:41:11;8.57;;;7.57;;
78995;SDS011;68401;47.192;-1.552;2023-11-21T06:43:38;6.55;;;3.50;;
78995;SDS011;68401;47.192;-1.552;2023-11-21T06:46:04;13.00;;;7.20;;
78995;SDS011;68401;47.192;-1.552;2023-11-21T06:48:30;5.32;;;3.30;;
78995;SDS011;68401;47.192;-1.552;2023-11-21T06:50:56;8.63;;;3.75;;
78995;SDS011;68401;47.192;-1.552;2023-11-21T06:53:21;11.18;;;4.15;;
78995;SDS011;68401;47.192;-1.552;2023-11-21T06:55:46;7.78;;;6.88;;
78995;SDS011;68401;47.192;-1.552;2023-11-21T06:58:12;11.00;;;6.35;;
78995;SDS011;68401;47.192;-1.552;2023-11-21T07:00:39;5.20;;;2.63;;
78995;SDS011;68401;47.192;-1.552;2023-11-21T07:03:04;6.45;;;2.10;;
78995;SDS011;68401;47.192;-1.552;2023-11-21T07:05:30;5.53;;;2.50;;
78995;SDS011;68401;47.192;-1.552;2023-11-21T07:07:55;6.18;;;2.45;;
78995;SDS011;68401;47.192;-1.552;2023-11-21T07:10:21;4.10;;;1.90;;
78995;SDS011;68401;47.192;-1.552;2023-11-21T07:12:47;9.10;;;2.60;;
78995;SDS011;68401;47.192;-1.552;2023-11-21T07:15:12;5.80;;;3.00;;
78995;SDS011;68401;47.192;-1.552;2023-11-21T07:17:37;4.88;;;2.08;;
78995;SDS011;68401;47.192;-1.552;2023-11-21T07:20:03;10.93;;;2.72;;
78995;SDS011;68401;47.192;-1.552;2023-11-21T07:22:29;4.32;;;2.35;;
78995;SDS011;68401;47.192;-1.552;2023-11-21T07:24:55;7.72;;;2.05;;
78995;SDS011;68401;47.192;-1.552;2023-11-21T07:27:21;10.18;;;2.30;;
78995;SDS011;68401;47.192;-1.552;2023-11-21T07:29:47;5.80;;;2.20;;
78995;SDS011;68401;47.192;-1.552;2023-11-21T07:32:13;7.80;;;2.25;;
78995;SDS011;68401;47.192;-1.552;2023-11-21T07:34:39;7.03;;;1.98;;
78995;SDS011;68401;47.192;-1.552;2023-11-21T07:37:06;6.50;;;2.30;;
78995;SDS011;68401;47.192;-1.552;2023-11-21T07:39:32;4.68;;;1.73;;
78995;SDS011;68401;47.192;-1.552;2023-11-21T07:41:57;6.78;;;2.22;;
78995;SDS011;68401;47.192;-1.552;2023-11-21T07:44:23;6.50;;;2.08;;
78995;SDS011;68401;47.192;-1.552;2023-11-21T07:46:48;4.55;;;1.85;;
78995;SDS011;68401;47.192;-1.552;2023-11-21T07:49:14;9.60;;;2.80;;
78995;SDS011;68401;47.192;-1.552;2023-11-21T07:51:41;4.72;;;1.77;;
78995;SDS011;68401;47.192;-1.552;2023-11-21T07:54:07;7.10;;;2.42;;
78995;SDS011;68401;47.192;-1.552;2023-11-21T07:56:32;4.60;;;2.28;;
78995;SDS011;68401;47.192;-1.552;2023-11-21T07:58:57;6.50;;;2.20;;
78995;SDS011;68401;47.192;-1.552;2023-11-21T08:01:23;7.68;;;2.38;;
78995;SDS011;68401;47.192;-1.552;2023-11-21T08:03:49;8.77;;;2.20;;
78995;SDS011;68401;47.192;-1.552;2023-11-21T08:06:17;5.65;;;2.10;;
78995;SDS011;68401;47.192;-1.552;2023-11-21T08:08:42;7.50;;;2.15;;
78995;SDS011;68401;47.192;-1.552;2023-11-21T08:11:08;8.73;;;2.58;;
78995;SDS011;68401;47.192;-1.552;2023-11-21T08:13:35;8.38;;;2.47;;
78995;SDS011;68401;47.192;-1.552;2023-11-21T08:16:00;5.35;;;2.13;;
78995;SDS011;68401;47.192;-1.552;2023-11-21T08:18:30;8.15;;;2.92;;
78995;SDS011;68401;47.192;-1.552;2023-11-21T08:20:55;6.38;;;2.50;;
78995;SDS011;68401;47.192;-1.552;2023-11-21T08:23:21;8.10;;;3.25;;
78995;SDS011;68401;47.192;-1.552;2023-11-21T08:25:53;7.25;;;2.88;;
78995;SDS011;68401;47.192;-1.552;2023-11-21T08:28:19;6.60;;;2.10;;
78995;SDS011;68401;47.192;-1.552;2023-11-21T08:30:45;9.35;;;2.90;;
78995;SDS011;68401;47.192;-1.552;2023-11-21T08:33:10;5.10;;;1.95;;
78995;SDS011;68401;47.192;-1.552;2023-11-21T08:35:36;5.90;;;2.10;;
78995;SDS011;68401;47.192;-1.552;2023-11-21T08:38:02;5.10;;;2.15;;
78995;SDS011;68401;47.192;-1.552;2023-11-21T08:40:28;8.20;;;2.60;;
78995;SDS011;68401;47.192;-1.552;2023-11-21T08:42:54;5.15;;;2.88;;
78995;SDS011;68401;47.192;-1.552;2023-11-21T08:45:20;9.00;;;2.40;;
78995;SDS011;68401;47.192;-1.552;2023-11-21T08:47:47;13.80;;;3.10;;
78995;SDS011;68401;47.192;-1.552;2023-11-21T08:50:12;5.82;;;2.35;;
78995;SDS011;68401;47.192;-1.552;2023-11-21T08:52:41;9.88;;;2.17;;
78995;SDS011;68401;47.192;-1.552;2023-11-21T08:55:07;5.00;;;2.30;;
78995;SDS011;68401;47.192;-1.552;2023-11-21T08:57:34;8.13;;;1.95;;
78995;SDS011;68401;47.192;-1.552;2023-11-21T09:00:00;7.03;;;2.10;;
78995;SDS011;68401;47.192;-1.552;2023-11-21T09:02:26;6.95;;;2.17;;
78995;SDS011;68401;47.192;-1.552;2023-11-21T09:04:52;8.25;;;2.88;;
78995;SDS011;68401;47.192;-1.552;2023-11-21T09:07:20;11.82;;;2.40;;
78995;SDS011;68401;47.192;-1.552;2023-11-21T09:09:49;7.18;;;2.20;;
78995;SDS011;68401;47.192;-1.552;2023-11-21T09:12:15;6.45;;;1.95;;
78995;SDS011;68401;47.192;-1.552;2023-11-21T09:14:42;6.07;;;1.95;;
78995;SDS011;68401;47.192;-1.552;2023-11-21T09:17:09;7.45;;;2.28;;
78995;SDS011;68401;47.192;-1.552;2023-11-21T09:19:40;6.20;;;2.00;;
78995;SDS011;68401;47.192;-1.552;2023-11-21T09:22:06;5.55;;;2.28;;
78995;SDS011;68401;47.192;-1.552;2023-11-21T09:24:33;7.13;;;1.73;;
78995;SDS011;68401;47.192;-1.552;2023-11-21T09:26:59;6.22;;;2.08;;
78995;SDS011;68401;47.192;-1.552;2023-11-21T09:29:25;5.47;;;2.10;;
78995;SDS011;68401;47.192;-1.552;2023-11-21T09:31:51;10.50;;;2.28;;
78995;SDS011;68401;47.192;-1.552;2023-11-21T09:34:16;7.15;;;1.98;;
78995;SDS011;68401;47.192;-1.552;2023-11-21T09:36:45;4.43;;;1.88;;
78995;SDS011;68401;47.192;-1.552;2023-11-21T09:39:11;11.00;;;2.05;;
78995;SDS011;68401;47.192;-1.552;2023-11-21T09:44:16;6.50;;;1.90;;
78995;SDS011;68401;47.192;-1.552;2023-11-21T09:46:43;5.25;;;1.90;;
78995;SDS011;68401;47.192;-1.552;2023-11-21T09:49:09;5.28;;;1.85;;
78995;SDS011;68401;47.192;-1.552;2023-11-21T09:51:42;7.60;;;1.77;;
78995;SDS011;68401;47.192;-1.552;2023-11-21T09:54:08;7.53;;;1.90;;
78995;SDS011;68401;47.192;-1.552;2023-11-21T09:56:37;6.50;;;2.00;;
78995;SDS011;68401;47.192;-1.552;2023-11-21T09:59:03;8.50;;;2.95;;
78995;SDS011;68401;47.192;-1.552;2023-11-21T10:01:34;7.60;;;2.55;;
78995;SDS011;68401;47.192;-1.552;2023-11-21T10:04:01;4.78;;;1.70;;
78995;SDS011;68401;47.192;-1.552;2023-11-21T10:06:26;3.83;;;2.00;;
78995;SDS011;68401;47.192;-1.552;2023-11-21T10:08:54;6.53;;;1.80;;
78995;SDS011;68401;47.192;-1.552;2023-11-21T10:11:23;6.03;;;2.25;;
78995;SDS011;68401;47.192;-1.552;2023-11-21T10:13:52;4.15;;;1.75;;
78995;SDS011;68401;47.192;-1.552;2023-11-21T10:16:19;4.13;;;1.40;;
78995;SDS011;68401;47.192;-1.552;2023-11-21T10:18:49;5.68;;;1.67;;
78995;SDS011;68401;47.192;-1.552;2023-11-21T10:21:18;6.90;;;1.75;;
78995;SDS011;68401;47.192;-1.552;2023-11-21T10:23:43;10.88;;;1.88;;
78995;SDS011;68401;47.192;-1.552;2023-11-21T10:26:09;5.00;;;2.20;;
78995;SDS011;68401;47.192;-1.552;2023-11-21T10:28:41;7.28;;;2.15;;
78995;SDS011;68401;47.192;-1.552;2023-11-21T10:31:07;4.22;;;1.40;;
78995;SDS011;68401;47.192;-1.552;2023-11-21T10:33:32;6.38;;;1.42;;
78995;SDS011;68401;47.192;-1.552;2023-11-21T10:35:58;5.95;;;1.50;;
78995;SDS011;68401;47.192;-1.552;2023-11-21T10:38:26;8.90;;;1.77;;
78995;SDS011;68401;47.192;-1.552;2023-11-21T10:40:53;9.00;;;1.75;;
78995;SDS011;68401;47.192;-1.552;2023-11-21T10:43:19;3.42;;;1.63;;
78995;SDS011;68401;47.192;-1.552;2023-11-21T10:45:49;6.07;;;1.55;;
78995;SDS011;68401;47.192;-1.552;2023-11-21T10:48:15;7.05;;;2.60;;
78995;SDS011;68401;47.192;-1.552;2023-11-21T10:50:40;5.57;;;1.50;;
78995;SDS011;68401;47.192;-1.552;2023-11-21T10:53:06;4.15;;;1.50;;
78995;SDS011;68401;47.192;-1.552;2023-11-21T10:55:33;6.22;;;1.48;;
78995;SDS011;68401;47.192;-1.552;2023-11-21T10:58:03;4.50;;;1.92;;
78995;SDS011;68401;47.192;-1.552;2023-11-21T11:00:31;2.50;;;1.30;;
78995;SDS011;68401;47.192;-1.552;2023-11-21T11:02:57;4.30;;;1.27;;
78995;SDS011;68401;47.192;-1.552;2023-11-21T11:05:24;3.20;;;1.85;;
78995;SDS011;68401;47.192;-1.552;2023-11-21T11:07:52;3.33;;;1.30;;
78995;SDS011;68401;47.192;-1.552;2023-11-21T11:10:27;4.38;;;1.50;;
78995;SDS011;68401;47.192;-1.552;2023-11-21T11:12:54;4.45;;;1.80;;
78995;SDS011;68401;47.192;-1.552;2023-11-21T11:15:20;2.97;;;1.20;;
78995;SDS011;68401;47.192;-1.552;2023-11-21T11:17:46;3.40;;;1.35;;
78995;SDS011;68401;47.192;-1.552;2023-11-21T11:20:16;2.63;;;1.75;;
78995;SDS011;68401;47.192;-1.552;2023-11-21T11:28:03;3.47;;;1.35;;
78995;SDS011;68401;47.192;-1.552;2023-11-21T11:36:00;4.20;;;1.92;;
78995;SDS011;68401;47.192;-1.552;2023-11-21T11:38:32;3.95;;;1.67;;
78995;SDS011;68401;47.192;-1.552;2023-11-21T11:41:01;5.20;;;1.40;;
78995;SDS011;68401;47.192;-1.552;2023-11-21T11:43:29;4.70;;;1.88;;
78995;SDS011;68401;47.192;-1.552;2023-11-21T11:45:57;5.10;;;1.90;;
78995;SDS011;68401;47.192;-1.552;2023-11-21T11:48:24;2.42;;;1.38;;
78995;SDS011;68401;47.192;-1.552;2023-11-21T11:51:06;4.95;;;1.40;;
78995;SDS011;68401;47.192;-1.552;2023-11-21T11:53:35;3.67;;;1.30;;
78995;SDS011;68401;47.192;-1.552;2023-11-21T11:58:55;6.65;;;1.70;;
78995;SDS011;68401;47.192;-1.552;2023-11-21T12:01:22;2.30;;;1.23;;
78995;SDS011;68401;47.192;-1.552;2023-11-21T12:06:42;4.20;;;1.98;;
78995;SDS011;68401;47.192;-1.552;2023-11-21T12:09:12;3.42;;;1.80;;
78995;SDS011;68401;47.192;-1.552;2023-11-21T12:11:43;3.05;;;1.33;;
78995;SDS011;68401;47.192;-1.552;2023-11-21T12:14:09;4.65;;;1.40;;
78995;SDS011;68401;47.192;-1.552;2023-11-21T12:16:34;4.13;;;1.60;;
78995;SDS011;68401;47.192;-1.552;2023-11-21T12:19:00;6.80;;;2.13;;
78995;SDS011;68401;47.192;-1.552;2023-11-21T12:21:27;4.43;;;1.30;;
78995;SDS011;68401;47.192;-1.552;2023-11-21T12:23:53;5.13;;;1.60;;
78995;SDS011;68401;47.192;-1.552;2023-11-21T12:26:18;2.55;;;1.50;;
78995;SDS011;68401;47.192;-1.552;2023-11-21T12:28:43;3.28;;;1.60;;
78995;SDS011;68401;47.192;-1.552;2023-11-21T12:31:09;3.03;;;1.38;;
78995;SDS011;68401;47.192;-1.552;2023-11-21T12:33:35;4.25;;;1.48;;
78995;SDS011;68401;47.192;-1.552;2023-11-21T12:36:01;3.72;;;1.58;;
78995;SDS011;68401;47.192;-1.552;2023-11-21T12:38:33;3.08;;;1.23;;
78995;SDS011;68401;47.192;-1.552;2023-11-21T12:41:01;4.13;;;1.73;;
78995;SDS011;68401;47.192;-1.552;2023-11-21T12:43:27;7.43;;;2.53;;
78995;SDS011;68401;47.192;-1.552;2023-11-21T12:46:14;4.15;;;1.65;;
78995;SDS011;68401;47.192;-1.552;2023-11-21T12:48:43;2.10;;;1.27;;
78995;SDS011;68401;47.192;-1.552;2023-11-21T12:51:10;3.72;;;1.42;;
78995;SDS011;68401;47.192;-1.552;2023-11-21T12:53:40;3.25;;;1.83;;
78995;SDS011;68401;47.192;-1.552;2023-11-21T12:56:06;5.22;;;1.80;;
78995;SDS011;68401;47.192;-1.552;2023-11-21T12:58:39;2.78;;;1.38;;
78995;SDS011;68401;47.192;-1.552;2023-11-21T13:01:05;2.45;;;1.33;;
78995;SDS011;68401;47.192;-1.552;2023-11-21T13:03:36;2.50;;;1.30;;
78995;SDS011;68401;47.192;-1.552;2023-11-21T13:06:02;4.72;;;1.60;;
78995;SDS011;68401;47.192;-1.552;2023-11-21T13:08:30;3.42;;;1.50;;
78995;SDS011;68401;47.192;-1.552;2023-11-21T13:10:56;2.95;;;1.38;;
78995;SDS011;68401;47.192;-1.552;2023-11-21T13:13:22;2.85;;;1.40;;
78995;SDS011;68401;47.192;-1.552;2023-11-21T13:18:40;4.22;;;1.60;;
78995;SDS011;68401;47.192;-1.552;2023-11-21T13:21:08;2.97;;;1.38;;
78995;SDS011;68401;47.192;-1.552;2023-11-21T13:23:38;3.10;;;1.80;;
78995;SDS011;68401;47.192;-1.552;2023-11-21T13:26:06;5.85;;;1.80;;
78995;SDS011;68401;47.192;-1.552;2023-11-21T13:28:32;3.13;;;1.38;;
78995;SDS011;68401;47.192;-1.552;2023-11-21T13:30:58;1.98;;;1.27;;
78995;SDS011;68401;47.192;-1.552;2023-11-21T13:33:28;3.25;;;1.65;;
78995;SDS011;68401;47.192;-1.552;2023-11-21T13:35:53;2.55;;;1.50;;
78995;SDS011;68401;47.192;-1.552;2023-11-21T13:38:21;3.90;;;1.50;;
78995;SDS011;68401;47.192;-1.552;2023-11-21T13:40:52;8.98;;;2.40;;
78995;SDS011;68401;47.192;-1.552;2023-11-21T13:43:24;2.97;;;1.40;;
78995;SDS011;68401;47.192;-1.552;2023-11-21T13:45:50;3.45;;;1.40;;
78995;SDS011;68401;47.192;-1.552;2023-11-21T13:48:23;3.33;;;1.83;;
78995;SDS011;68401;47.192;-1.552;2023-11-21T13:50:56;6.88;;;1.95;;
78995;SDS011;68401;47.192;-1.552;2023-11-21T13:53:35;6.85;;;2.50;;
78995;SDS011;68401;47.192;-1.552;2023-11-21T13:56:02;6.97;;;2.28;;
78995;SDS011;68401;47.192;-1.552;2023-11-21T13:58:28;3.35;;;1.80;;
78995;SDS011;68401;47.192;-1.552;2023-11-21T14:01:32;8.10;;;2.30;;
78995;SDS011;68401;47.192;-1.552;2023-11-21T14:04:27;6.15;;;3.08;;
78995;SDS011;68401;47.192;-1.552;2023-11-21T14:06:55;3.08;;;1.58;;
78995;SDS011;68401;47.192;-1.552;2023-11-21T14:09:22;4.38;;;2.45;;
78995;SDS011;68401;47.192;-1.552;2023-11-21T14:11:53;6.82;;;1.85;;
78995;SDS011;68401;47.192;-1.552;2023-11-21T14:14:23;5.07;;;2.03;;
78995;SDS011;68401;47.192;-1.552;2023-11-21T14:16:55;3.45;;;1.40;;
78995;SDS011;68401;47.192;-1.552;2023-11-21T14:19:22;4.25;;;1.58;;
78995;SDS011;68401;47.192;-1.552;2023-11-21T14:21:52;4.55;;;1.85;;
78995;SDS011;68401;47.192;-1.552;2023-11-21T14:24:17;5.05;;;2.08;;
78995;SDS011;68401;47.192;-1.552;2023-11-21T14:26:43;4.03;;;2.03;;
78995;SDS011;68401;47.192;-1.552;2023-11-21T14:29:13;2.72;;;1.65;;
78995;SDS011;68401;47.192;-1.552;2023-11-21T14:31:42;3.70;;;2.13;;
78995;SDS011;68401;47.192;-1.552;2023-11-21T14:34:08;3.88;;;1.85;;
78995;SDS011;68401;47.192;-1.552;2023-11-21T14:36:34;4.10;;;1.65;;
78995;SDS011;68401;47.192;-1.552;2023-11-21T14:39:01;6.65;;;2.15;;
78995;SDS011;68401;47.192;-1.552;2023-11-21T14:41:27;3.63;;;1.67;;
78995;SDS011;68401;47.192;-1.552;2023-11-21T14:43:54;4.57;;;2.10;;
78995;SDS011;68401;47.192;-1.552;2023-11-21T14:46:20;4.25;;;1.50;;
78995;SDS011;68401;47.192;-1.552;2023-11-21T14:48:46;3.10;;;1.83;;
78995;SDS011;68401;47.192;-1.552;2023-11-21T14:51:26;3.30;;;1.70;;
78995;SDS011;68401;47.192;-1.552;2023-11-21T14:53:55;4.07;;;2.45;;